Thursday, March 05, 2015
11:56 UTC
  |  Log In   |  Register Free
Airport Search:

Coffeyville Municipal Airport
(KCFV)

Coffeyville Municipal Airport Diagram
No Airport Diagram Available

FAA data valid effective January 08, 2015 - March 05, 2015 (unless otherwise noted).

 
 
 
 
 
 
 
 
 
 
 
 
 
 

Current Aviation Weather for Coffeyville Municipal Airport (KCFV)

The most recent METAR observation for KCFV was updated at: 1108
METAR Summary (Translated METAR)
KCFV
051052Z AUTO 31004KT 10SM CLR M08/M12 A3050 RMK AO2 SLP339 T10831122
KIDP
051055Z AUTO 00000KT 10SM CLR M08/M12 A3050 RMK AO2
(10.6 nm NW from KCFV)
KPPF
051052Z AUTO 00000KT 10SM CLR M11/M12 A3049 RMK AO2 SLP338 I1000 T11111122
(14.6 nm NE from KCFV)
TAF
No TAF information found within 50 nm of KCFV
  Airport Weather Conditions for KCFV

 Current Weather at CFV
17° F
Fair
Northwest winds at 4.6 mph
CFV NOAA Radar

Pressure: 30.50 in
Humidity: 74%
Wind: Northwest at 4.6 MPH (4 KT)
Dew Point: 10.0°F
Visibility: 10.00 mi


Airport Weather Forecast for KCFV

Translated METAR and TAF for KCFV
Translated METAR for KCFV (1156 UTC 05 March 2015)
found at http://aviationweather.gov/adds/metars/
 
METAR text: KCFV 051152Z AUTO 32003KT 10SM CLR M09/M13 A3052 RMK AO2 SLP346 70002 T10941128 11044 21094 53018
Conditions at: KCFV (COFFEYVILLE , KS, US) observed 1152 UTC 05 March 2015
Temperature: -9.4°C (15°F)
Dewpoint: -12.8°C (9°F) [RH = 76%]
Pressure (altimeter): 30.52 inches Hg (1033.6 mb)
[Sea-level pressure: 1034.6 mb]
Winds: from the NW (320 degrees) at 3 MPH (3 knots; 1.6 m/s)
Visibility: 10 or more miles (16+ km)
Ceiling: at least 12,000 feet AGL
Clouds: sky clear below 12,000 feet AGL
Weather: automated observation with no human augmentation;
there may or may not be significant weather present at this time
Translated TAF for KCFV

There is no translated TAF available for this airport

Find All Airport Services Find A Hotel Find A Rental Car Find A Golf Course Find A Restaurant $100 Hamburger



FBO's on the Field
FBO Company Facility Photos Services Transportation Aviation Fuel Prices: Prices include tax
Catering Weather Repair Courtesy Rental Type 100LL JetA JetA+ MOGAS 8087
 
Coffeyville Aircraft, Inc

This FBO has not yet been rated
FS:Phillips 66
Last Updated: Feb-20
Login to update fuel prices
SS:
Contact Coffeyville Aircraft, IncMore FBO Information
 
Add another FBO Facility Photos Catering Weather Repair Courtesy Rental Type 100LL JetA JetA+ MOGAS 8087
Services Transportation Aviation Fuel Prices: Prices include tax


model-print
model-print
model-print
model-print